createdAt,value
2023-04-04T00:00:45.693Z,70.77
2023-04-04T00:03:19.477Z,70.79
2023-04-04T00:05:52.753Z,70.82
2023-04-04T00:08:26.420Z,70.83
2023-04-04T00:11:01.549Z,70.84
2023-04-04T00:13:35.100Z,70.87
2023-04-04T00:16:10.235Z,70.95
2023-04-04T00:18:43.590Z,71.04
2023-04-04T00:21:16.979Z,71.17
2023-04-04T00:23:50.143Z,71.17
2023-04-04T00:26:23.095Z,71.10
2023-04-04T00:28:56.556Z,71.17
2023-04-04T00:31:30.081Z,71.30
2023-04-04T00:34:03.390Z,71.38
2023-04-04T00:36:36.641Z,71.38
2023-04-04T00:39:10.130Z,71.42
2023-04-04T00:41:43.303Z,71.40
2023-04-04T00:44:16.776Z,71.44
2023-04-04T00:46:50.470Z,71.49
2023-04-04T00:49:23.489Z,71.46
2023-04-04T00:51:56.946Z,71.54
2023-04-04T00:54:31.521Z,71.56
2023-04-04T00:57:07.154Z,71.66
2023-04-04T00:59:40.247Z,71.67
2023-04-04T01:02:13.624Z,71.71
2023-04-04T01:04:47.345Z,71.67
2023-04-04T01:07:21.123Z,71.76
2023-04-04T01:09:56.931Z,71.97
2023-04-04T01:12:30.269Z,72.05
2023-04-04T01:15:04.223Z,72.19
2023-04-04T01:17:39.021Z,72.33
2023-04-04T01:20:15.973Z,72.33
2023-04-04T01:22:53.091Z,72.26
2023-04-04T01:25:31.974Z,72.16
2023-04-04T01:28:07.536Z,72.07
2023-04-04T01:30:43.832Z,72.24
2023-04-04T01:33:21.301Z,72.50
2023-04-04T01:35:57.285Z,72.73
2023-04-04T01:38:33.928Z,72.85
2023-04-04T01:41:10.360Z,72.90
2023-04-04T01:43:48.096Z,72.88
2023-04-04T01:46:22.504Z,72.85
2023-04-04T01:48:56.276Z,72.76
2023-04-04T01:51:32.027Z,72.73
2023-04-04T01:54:05.718Z,72.69
2023-04-04T01:56:39.075Z,72.68
2023-04-04T01:59:12.317Z,72.72
2023-04-04T02:01:45.591Z,72.73
2023-04-04T02:04:18.870Z,72.65
2023-04-04T02:06:52.815Z,72.73
2023-04-04T02:09:26.345Z,72.79
2023-04-04T02:11:59.979Z,72.82
2023-04-04T02:14:33.408Z,73.02
2023-04-04T02:17:07.692Z,73.10
2023-04-04T02:19:40.968Z,73.04
2023-04-04T02:22:14.062Z,72.98
2023-04-04T02:24:47.157Z,73.01
2023-04-04T02:27:20.588Z,72.96
2023-04-04T02:29:55.389Z,73.03
2023-04-04T02:32:28.729Z,73.03
2023-04-04T02:35:02.326Z,72.97
2023-04-04T02:37:35.209Z,73.00
2023-04-04T02:40:11.464Z,73.05
2023-04-04T02:42:48.275Z,73.10
2023-04-04T02:45:21.471Z,73.09
2023-04-04T02:47:56.488Z,73.02
2023-04-04T02:50:31.425Z,73.03
2023-04-04T02:53:05.950Z,73.02
2023-04-04T02:55:39.651Z,73.09
2023-04-04T02:58:13.273Z,73.14
2023-04-04T03:00:47.658Z,73.11
2023-04-04T03:03:21.099Z,73.15
2023-04-04T03:05:54.746Z,73.29
2023-04-04T03:08:28.791Z,73.31
2023-04-04T03:11:03.691Z,73.28
2023-04-04T03:13:37.020Z,73.31
2023-04-04T03:16:11.890Z,73.35
2023-04-04T03:18:50.083Z,73.35
2023-04-04T03:21:25.132Z,73.37
2023-04-04T03:24:00.014Z,73.37
2023-04-04T03:26:33.413Z,73.44
2023-04-04T03:29:07.368Z,73.56
2023-04-04T03:31:41.744Z,73.51
2023-04-04T03:34:15.839Z,73.65
2023-04-04T03:36:49.114Z,73.64
2023-04-04T03:39:22.397Z,73.66
2023-04-04T03:41:56.469Z,73.64
2023-04-04T03:44:30.154Z,73.73
2023-04-04T03:47:03.551Z,73.83
2023-04-04T03:49:38.540Z,73.98
2023-04-04T03:52:12.286Z,74.13
2023-04-04T03:54:45.690Z,74.20
2023-04-04T03:57:19.112Z,74.19
2023-04-04T03:59:52.544Z,74.35
2023-04-04T04:02:27.601Z,74.72
2023-04-04T04:05:00.897Z,74.85
2023-04-04T04:07:34.074Z,74.92
2023-04-04T04:10:08.919Z,74.93
2023-04-04T04:12:42.537Z,74.98
2023-04-04T04:15:16.161Z,74.92
2023-04-04T04:17:49.768Z,74.95
2023-04-04T04:20:23.870Z,74.90
2023-04-04T04:22:57.860Z,74.80
2023-04-04T04:25:31.426Z,74.82
2023-04-04T04:28:06.401Z,74.82
2023-04-04T04:30:39.861Z,74.80
2023-04-04T04:33:13.820Z,74.78
2023-04-04T04:35:54.357Z,74.92
2023-04-04T04:38:28.697Z,74.91
2023-04-04T04:41:02.657Z,74.95
2023-04-04T04:43:37.766Z,74.98
2023-04-04T04:46:11.248Z,74.89
2023-04-04T04:48:44.669Z,74.86
2023-04-04T04:51:18.436Z,74.85
2023-04-04T04:53:53.323Z,74.74
2023-04-04T04:56:27.378Z,74.59
2023-04-04T04:59:02.267Z,74.51
2023-04-04T05:01:35.301Z,74.41
2023-04-04T05:04:09.667Z,74.45
2023-04-04T05:06:44.588Z,74.61
2023-04-04T05:09:18.572Z,74.59
2023-04-04T05:11:52.063Z,74.54
2023-04-04T05:14:27.713Z,74.47
2023-04-04T05:17:02.147Z,74.32
2023-04-04T05:19:37.174Z,74.09
2023-04-04T05:22:10.652Z,74.10
2023-04-04T05:24:45.706Z,74.24
2023-04-04T05:27:20.639Z,74.11
2023-04-04T05:29:56.105Z,74.02
2023-04-04T05:32:30.225Z,73.89
2023-04-04T05:35:05.417Z,73.76
2023-04-04T05:37:42.739Z,73.39
2023-04-04T05:40:18.442Z,73.04
2023-04-04T05:42:59.572Z,72.63
2023-04-04T05:45:34.864Z,72.35
2023-04-04T05:48:08.441Z,71.78
2023-04-04T05:50:44.779Z,71.11
2023-04-04T05:53:18.372Z,70.14
2023-04-04T05:55:55.012Z,69.57
2023-04-04T05:58:29.862Z,69.31
2023-04-04T06:01:03.621Z,69.45
2023-04-04T06:03:37.023Z,68.98
2023-04-04T06:06:12.194Z,68.31
2023-04-04T06:08:53.511Z,67.74
2023-04-04T06:11:21.915Z,67.59
2023-04-04T06:13:55.309Z,66.65
2023-04-04T06:16:30.288Z,66.37
2023-04-04T06:19:03.841Z,66.12
2023-04-04T06:21:37.170Z,65.99
2023-04-04T06:24:11.396Z,65.60
2023-04-04T06:26:45.641Z,64.83
2023-04-04T06:29:19.081Z,64.43
2023-04-04T06:31:53.188Z,64.56
2023-04-04T06:34:28.452Z,64.73
2023-04-04T06:37:03.688Z,64.51
2023-04-04T06:39:38.625Z,64.55
2023-04-04T06:42:13.508Z,64.57
2023-04-04T06:44:49.088Z,63.94
2023-04-04T06:47:22.790Z,63.32
2023-04-04T06:49:56.672Z,63.22
2023-04-04T06:52:30.473Z,62.19
2023-04-04T06:55:04.407Z,61.12
2023-04-04T06:57:38.560Z,60.50
2023-04-04T07:00:14.373Z,59.56
2023-04-04T07:02:47.732Z,57.99
2023-04-04T07:05:21.096Z,57.26
2023-04-04T07:07:57.127Z,55.61
2023-04-04T07:10:30.711Z,54.86
2023-04-04T07:13:04.385Z,53.81
2023-04-04T07:15:38.174Z,54.15
2023-04-04T07:18:12.547Z,53.34
2023-04-04T07:20:48.194Z,53.01
2023-04-04T07:23:21.649Z,52.05
2023-04-04T07:25:55.066Z,53.15
2023-04-04T07:28:28.323Z,53.70
2023-04-04T07:31:03.604Z,54.06
2023-04-04T07:33:36.798Z,54.34
2023-04-04T07:36:10.312Z,54.29
2023-04-04T07:38:43.562Z,53.88
2023-04-04T07:41:16.824Z,53.57
2023-04-04T07:43:50.202Z,54.25
2023-04-04T07:46:23.694Z,54.38
2023-04-04T07:48:57.209Z,54.39
2023-04-04T07:51:31.544Z,54.69
2023-04-04T07:54:04.527Z,54.83
2023-04-04T07:56:37.553Z,54.54
2023-04-04T07:59:10.708Z,53.06
2023-04-04T08:01:46.133Z,52.51
2023-04-04T08:04:20.043Z,52.25
2023-04-04T08:06:53.245Z,50.99
2023-04-04T08:09:28.237Z,50.90
2023-04-04T08:12:01.666Z,51.10
2023-04-04T08:14:34.707Z,51.59
2023-04-04T08:17:08.267Z,51.59
2023-04-04T08:19:41.305Z,51.90
2023-04-04T08:22:14.821Z,52.42
2023-04-04T08:24:47.978Z,52.46
2023-04-04T08:27:20.975Z,52.46
2023-04-04T08:29:54.942Z,52.64
2023-04-04T08:32:28.067Z,53.14
2023-04-04T08:35:01.244Z,53.26
2023-04-04T08:37:35.590Z,52.91
2023-04-04T08:40:10.649Z,52.93
2023-04-04T08:42:46.105Z,52.24
2023-04-04T08:45:22.749Z,50.07
2023-04-04T08:47:59.276Z,44.23
2023-04-04T08:50:33.733Z,40.83
2023-04-04T08:53:07.929Z,39.25
2023-04-04T08:55:42.558Z,40.91
2023-04-04T08:58:17.471Z,42.76
2023-04-04T09:00:52.092Z,43.91
2023-04-04T09:03:27.629Z,43.98
2023-04-04T09:06:01.243Z,43.96
2023-04-04T09:08:34.423Z,43.10
2023-04-04T09:11:07.976Z,43.08
2023-04-04T09:13:42.301Z,42.17
2023-04-04T09:16:16.048Z,40.51
2023-04-04T09:18:49.002Z,39.73
2023-04-04T09:21:22.405Z,38.63
2023-04-04T09:24:02.216Z,37.49
2023-04-04T09:26:49.157Z,38.44
2023-04-04T09:29:22.787Z,38.85
2023-04-04T09:31:56.062Z,39.96
2023-04-04T09:34:31.919Z,40.75
2023-04-04T09:37:06.356Z,41.38
2023-04-04T09:39:41.054Z,41.63
2023-04-04T09:42:14.380Z,42.22
2023-04-04T09:44:47.298Z,42.18
2023-04-04T09:47:42.888Z,41.23
2023-04-04T09:50:20.199Z,39.18
2023-04-04T09:52:55.412Z,35.75
2023-04-04T09:55:36.716Z,32.91
2023-04-04T09:58:20.403Z,31.21
2023-04-04T10:00:56.243Z,32.61
2023-04-04T10:03:30.037Z,33.65
2023-04-04T10:06:07.199Z,33.11
2023-04-04T10:08:42.278Z,32.21
2023-04-04T10:11:16.846Z,33.33
2023-04-04T10:13:51.413Z,33.44
2023-04-04T10:16:26.789Z,32.51
2023-04-04T10:19:00.394Z,33.30
2023-04-04T10:21:33.288Z,33.35
2023-04-04T10:24:09.874Z,33.46
2023-04-04T10:26:43.482Z,34.60
2023-04-04T10:29:16.580Z,33.62
2023-04-04T10:31:50.962Z,30.44
2023-04-04T10:34:29.545Z,29.38
2023-04-04T10:37:12.823Z,30.14
2023-04-04T10:39:48.278Z,31.21
2023-04-04T10:42:21.850Z,33.68
2023-04-04T10:44:55.690Z,35.06
2023-04-04T10:47:30.847Z,35.84
2023-04-04T10:50:06.586Z,36.99
2023-04-04T10:52:42.230Z,37.59
2023-04-04T10:55:17.336Z,38.27
2023-04-04T10:57:54.598Z,38.94
2023-04-04T11:00:29.950Z,39.50
2023-04-04T11:03:05.341Z,40.41
2023-04-04T11:05:43.577Z,40.70
2023-04-04T11:08:20.130Z,40.73
2023-04-04T11:10:54.570Z,40.77
2023-04-04T11:13:30.842Z,40.79
2023-04-04T11:16:10.007Z,40.83
2023-04-04T11:18:49.330Z,40.66
2023-04-04T11:21:25.195Z,41.23
2023-04-04T11:24:17.729Z,41.55
2023-04-04T11:26:51.347Z,41.96
2023-04-04T11:29:28.130Z,42.33
2023-04-04T11:32:01.550Z,42.59
2023-04-04T11:34:36.863Z,42.79
2023-04-04T11:37:20.128Z,42.91
2023-04-04T11:39:55.560Z,43.31
2023-04-04T11:42:37.610Z,44.00
2023-04-04T11:45:11.516Z,44.46
2023-04-04T11:47:48.204Z,44.59
2023-04-04T11:50:22.374Z,44.68
2023-04-04T11:52:56.566Z,44.61
2023-04-04T11:55:29.742Z,44.68
2023-04-04T11:58:13.662Z,44.76
2023-04-04T12:00:48.089Z,44.68
2023-04-04T12:03:21.876Z,44.81
2023-04-04T12:05:55.328Z,45.20
2023-04-04T12:08:29.454Z,45.60
2023-04-04T12:11:09.535Z,45.93
2023-04-04T12:13:46.075Z,46.07
2023-04-04T12:16:20.818Z,46.11
2023-04-04T12:18:54.073Z,46.11
2023-04-04T12:21:27.870Z,46.29
2023-04-04T12:24:01.428Z,46.46
2023-04-04T12:26:35.270Z,46.57
2023-04-04T12:29:09.617Z,46.45
2023-04-04T12:31:45.301Z,46.58
2023-04-04T12:34:23.466Z,46.81
2023-04-04T12:36:58.746Z,46.99
2023-04-04T12:39:32.742Z,46.87
2023-04-04T12:42:07.707Z,46.91
2023-04-04T12:44:41.772Z,46.86
2023-04-04T12:47:18.100Z,47.09
2023-04-04T12:49:54.346Z,47.14
2023-04-04T12:55:11.130Z,46.99
2023-04-04T12:57:46.278Z,46.92
2023-04-04T13:00:22.934Z,46.79
2023-04-04T13:02:56.476Z,46.76
2023-04-04T13:05:29.719Z,46.85
2023-04-04T13:08:10.439Z,47.07
2023-04-04T13:11:06.781Z,47.10
2023-04-04T13:13:41.289Z,47.23
2023-04-04T13:16:17.355Z,47.47
2023-04-04T13:18:50.737Z,47.45
2023-04-04T13:21:24.294Z,47.53
2023-04-04T13:23:57.794Z,47.65
2023-04-04T13:26:31.413Z,47.96
2023-04-04T13:29:04.629Z,48.14
2023-04-04T13:31:38.127Z,48.23
2023-04-04T13:34:11.257Z,48.58
2023-04-04T13:36:45.053Z,48.91
2023-04-04T13:39:18.440Z,49.02
2023-04-04T13:41:51.763Z,48.96
2023-04-04T13:44:26.778Z,48.90
2023-04-04T13:47:00.111Z,48.88
2023-04-04T13:49:33.383Z,49.00
2023-04-04T13:52:07.316Z,48.89
2023-04-04T13:54:40.372Z,48.77
2023-04-04T13:57:14.113Z,48.82
2023-04-04T13:59:47.949Z,48.84
2023-04-04T14:02:21.337Z,48.71
2023-04-04T14:04:55.084Z,48.74
2023-04-04T14:07:28.790Z,48.69
2023-04-04T14:10:02.213Z,48.62
2023-04-04T14:12:35.630Z,48.59
2023-04-04T14:15:11.607Z,48.58
2023-04-04T14:17:46.033Z,48.69
2023-04-04T14:20:19.965Z,48.74
2023-04-04T14:22:53.515Z,48.79
2023-04-04T14:25:26.989Z,48.95
2023-04-04T14:28:00.661Z,49.03
2023-04-04T14:30:34.216Z,49.22
2023-04-04T14:33:08.172Z,49.36
2023-04-04T14:35:42.580Z,49.46
2023-04-04T14:38:16.555Z,49.52
2023-04-04T14:40:50.348Z,49.49
2023-04-04T14:43:24.507Z,49.43
2023-04-04T14:45:58.126Z,49.45
2023-04-04T14:48:32.010Z,49.59
2023-04-04T14:51:05.853Z,49.55
2023-04-04T14:53:39.514Z,49.67
2023-04-04T14:56:13.160Z,49.60
2023-04-04T14:58:47.056Z,49.73
2023-04-04T15:01:22.019Z,49.66
2023-04-04T15:03:56.433Z,49.61
2023-04-04T15:06:31.646Z,49.79
2023-04-04T15:09:06.113Z,50.00
2023-04-04T15:11:39.669Z,50.21
2023-04-04T15:14:13.309Z,50.23
2023-04-04T15:16:46.926Z,50.27
2023-04-04T15:19:21.066Z,50.27
2023-04-04T15:21:57.448Z,50.17
2023-04-04T15:24:31.116Z,50.29
2023-04-04T15:27:04.940Z,50.55
2023-04-04T15:29:38.214Z,50.92
2023-04-04T15:32:11.714Z,51.08
2023-04-04T15:34:45.450Z,51.25
2023-04-04T15:37:19.239Z,51.38
2023-04-04T15:39:53.963Z,51.52
2023-04-04T15:42:29.299Z,51.66
2023-04-04T15:45:03.929Z,51.91
2023-04-04T15:47:38.332Z,52.15
2023-04-04T15:50:12.894Z,52.17
2023-04-04T15:52:52.987Z,52.34
2023-04-04T15:55:32.209Z,52.61
2023-04-04T15:58:08.213Z,52.63
2023-04-04T16:00:46.273Z,52.63
2023-04-04T16:03:24.369Z,52.75
2023-04-04T16:06:03.976Z,52.75
2023-04-04T16:08:40.430Z,52.68
2023-04-04T16:11:15.652Z,52.61
2023-04-04T16:13:51.676Z,52.65
2023-04-04T16:16:25.602Z,52.77
2023-04-04T16:18:59.435Z,52.79
2023-04-04T16:21:33.517Z,52.97
2023-04-04T16:24:08.333Z,53.18
2023-04-04T16:26:43.585Z,53.34
2023-04-04T16:29:18.653Z,53.50
2023-04-04T16:31:57.300Z,53.54
2023-04-04T16:34:31.011Z,53.58
2023-04-04T16:37:04.785Z,53.65
2023-04-04T16:39:38.492Z,53.83
2023-04-04T16:42:12.233Z,53.87
2023-04-04T16:44:45.758Z,53.90
2023-04-04T16:47:19.449Z,54.03
2023-04-04T16:49:52.924Z,54.04
2023-04-04T16:52:26.501Z,54.10
2023-04-04T16:54:59.890Z,54.17
2023-04-04T16:57:34.816Z,54.30
2023-04-04T17:00:10.828Z,54.57
2023-04-04T17:02:46.228Z,54.83
2023-04-04T17:05:20.001Z,54.92
2023-04-04T17:07:53.251Z,55.00
2023-04-04T17:10:26.975Z,55.09
2023-04-04T17:13:00.705Z,55.15
2023-04-04T17:15:34.708Z,55.13
2023-04-04T17:18:08.673Z,55.22
2023-04-04T17:20:43.717Z,55.40
2023-04-04T17:23:21.170Z,55.53
2023-04-04T17:25:54.945Z,55.59
2023-04-04T17:28:28.465Z,55.54
2023-04-04T17:31:02.554Z,55.48
2023-04-04T17:33:36.122Z,55.70
2023-04-04T17:36:10.125Z,55.77
2023-04-04T17:38:43.516Z,55.91
2023-04-04T17:41:17.012Z,55.94
2023-04-04T17:43:51.054Z,55.98
2023-04-04T17:46:25.673Z,56.08
2023-04-04T17:48:59.232Z,56.00
2023-04-04T17:51:34.008Z,56.00
2023-04-04T17:54:08.580Z,56.08
2023-04-04T17:56:43.832Z,56.10
2023-04-04T17:59:17.830Z,56.33
2023-04-04T18:01:51.666Z,56.66
2023-04-04T18:04:25.568Z,56.62
2023-04-04T18:06:59.943Z,56.40
2023-04-04T18:09:34.043Z,56.51
2023-04-04T18:12:08.202Z,56.65
2023-04-04T18:14:41.855Z,56.93
2023-04-04T18:17:15.541Z,57.07
2023-04-04T18:19:49.090Z,57.08
2023-04-04T18:22:23.223Z,57.10
2023-04-04T18:24:57.637Z,57.12
2023-04-04T18:27:31.745Z,57.32
2023-04-04T18:30:05.808Z,57.51
2023-04-04T18:32:39.675Z,57.68
2023-04-04T18:35:14.815Z,57.85
2023-04-04T18:37:48.381Z,57.91
2023-04-04T18:40:22.084Z,58.02
2023-04-04T18:42:55.627Z,58.14
2023-04-04T18:45:39.377Z,58.26
2023-04-04T18:48:08.676Z,58.29
2023-04-04T18:50:42.774Z,58.42
2023-04-04T18:53:16.485Z,58.40
2023-04-04T18:55:50.012Z,58.39
2023-04-04T18:58:24.238Z,58.31
2023-04-04T19:00:58.834Z,58.41
2023-04-04T19:03:34.851Z,58.42
2023-04-04T19:06:10.459Z,58.49
2023-04-04T19:08:44.943Z,58.65
2023-04-04T19:11:18.744Z,58.72
2023-04-04T19:13:52.839Z,58.89
2023-04-04T19:16:26.517Z,58.98
2023-04-04T19:19:00.385Z,59.10
2023-04-04T19:21:34.339Z,59.17
2023-04-04T19:24:09.091Z,59.37
2023-04-04T19:26:42.869Z,59.73
2023-04-04T19:29:19.696Z,59.84
2023-04-04T19:31:55.558Z,59.92
2023-04-04T19:34:30.693Z,59.84
2023-04-04T19:37:04.304Z,59.98
2023-04-04T19:39:39.265Z,60.13
2023-04-04T19:42:13.405Z,60.27
2023-04-04T19:44:46.960Z,60.51
2023-04-04T19:47:22.093Z,60.56
2023-04-04T19:49:56.288Z,60.80
2023-04-04T19:52:29.809Z,60.87
2023-04-04T19:55:06.168Z,60.88
2023-04-04T19:57:40.864Z,60.87
2023-04-04T20:00:18.448Z,60.88
2023-04-04T20:02:57.523Z,60.94
2023-04-04T20:06:03.163Z,60.91
2023-04-04T20:08:41.207Z,61.03
2023-04-04T20:11:15.228Z,61.15
2023-04-04T20:13:49.000Z,61.36
2023-04-04T20:16:23.234Z,61.46
2023-04-04T20:18:58.516Z,61.59
2023-04-04T20:21:32.580Z,61.56
2023-04-04T20:24:08.964Z,61.64
2023-04-04T20:26:46.724Z,61.78
2023-04-04T20:29:22.673Z,61.81
2023-04-04T20:31:58.155Z,61.88
2023-04-04T20:34:42.731Z,61.96
2023-04-04T20:37:20.326Z,62.08
2023-04-04T20:39:57.263Z,62.21
2023-04-04T20:42:41.514Z,62.24
2023-04-04T20:45:47.035Z,62.26
2023-04-04T20:48:38.858Z,62.36
2023-04-04T20:51:24.694Z,62.40
2023-04-04T20:54:00.302Z,62.39
2023-04-04T20:56:55.230Z,62.52
2023-04-04T20:59:37.905Z,62.57
2023-04-04T21:02:17.082Z,62.41
2023-04-04T21:04:52.236Z,62.43
2023-04-04T21:07:39.390Z,62.46
2023-04-04T21:10:28.665Z,62.61
2023-04-04T21:13:03.197Z,62.63
2023-04-04T21:15:38.631Z,62.89
2023-04-04T21:18:13.610Z,63.33
2023-04-04T21:21:18.935Z,63.58
2023-04-04T21:23:54.405Z,63.84
2023-04-04T21:26:35.551Z,63.92
2023-04-04T21:29:11.516Z,64.09
2023-04-04T21:31:46.914Z,64.22
2023-04-04T21:34:22.100Z,64.46
2023-04-04T21:36:57.158Z,64.53
2023-04-04T21:39:31.833Z,64.75
2023-04-04T21:42:08.840Z,64.77
2023-04-04T21:44:41.717Z,64.94
2023-04-04T21:47:15.889Z,65.14
2023-04-04T21:49:49.373Z,65.25
2023-04-04T21:52:23.041Z,65.21
2023-04-04T21:54:56.633Z,65.41
2023-04-04T21:57:30.029Z,65.50
2023-04-04T22:00:03.943Z,65.69
2023-04-04T22:02:37.484Z,65.89
2023-04-04T22:05:12.192Z,66.00
2023-04-04T22:07:46.116Z,66.38
2023-04-04T22:10:21.662Z,66.84
2023-04-04T22:12:57.401Z,66.99
2023-04-04T22:15:30.964Z,66.96
2023-04-04T22:18:05.246Z,66.96
2023-04-04T22:20:39.244Z,66.86
2023-04-04T22:23:15.539Z,66.79
2023-04-04T22:25:49.200Z,66.81
2023-04-04T22:28:24.932Z,66.92
2023-04-04T22:30:58.776Z,67.36
2023-04-04T22:33:34.988Z,67.29
2023-04-04T22:36:10.245Z,67.21
2023-04-04T22:38:44.156Z,67.15
2023-04-04T22:41:17.765Z,67.13
2023-04-04T22:43:51.186Z,67.22
2023-04-04T22:46:26.004Z,67.42
2023-04-04T22:49:06.781Z,67.68
2023-04-04T22:51:45.943Z,67.55
2023-04-04T22:54:20.938Z,67.41
2023-04-04T22:56:54.518Z,67.30
2023-04-04T22:59:28.110Z,67.37
2023-04-04T23:02:01.328Z,67.29
2023-04-04T23:04:35.273Z,67.27
2023-04-04T23:07:09.077Z,67.24
2023-04-04T23:09:42.665Z,67.20
2023-04-04T23:12:16.558Z,67.30
2023-04-04T23:14:50.126Z,67.39
2023-04-04T23:17:23.785Z,67.48
2023-04-04T23:19:57.258Z,67.37
2023-04-04T23:22:31.545Z,67.68
2023-04-04T23:25:06.616Z,67.73
2023-04-04T23:27:40.917Z,67.67
2023-04-04T23:30:15.571Z,67.68
2023-04-04T23:32:49.040Z,67.66
2023-04-04T23:35:22.538Z,67.70
2023-04-04T23:37:56.474Z,67.73
2023-04-04T23:40:30.129Z,67.82
2023-04-04T23:43:03.868Z,67.88
2023-04-04T23:45:40.128Z,67.86
2023-04-04T23:48:13.634Z,67.87
2023-04-04T23:50:47.277Z,67.89
2023-04-04T23:53:20.926Z,68.02
2023-04-04T23:55:54.060Z,68.09
2023-04-04T23:58:27.428Z,68.07
